L Ar Voaleden — FIMJ — position and weather

sailwx.info

Track history (hours):
 
Tides and Currents Weather Stations Pressure Air Temp Water Temp Dewpoint Dewpoint Depression Visibility Wind Speed Wind Dir Waves Ship Positions

L Ar Voaleden

Last reported at 2018-Feb-23 17:58 UTC. Time now 2018-Feb-25 02:11 UTC.
Position N 48°15' W 005°44'.

Length 23 m; draft 3.6 m.

Type: Fishing. MMSI: 226178000.

Date/timePositionNaut miles runAvg speedWind from/ knotsBaromVisibWave heightAir tempDewpointWater temp
2018-Feb-23 17:58N 48°15' W 005°44'5 9.8
2018-Feb-23 17:30N 48°13' W 005°38'5 9.8
2018-Feb-23 17:00N 48°10' W 005°31'5 9.8
2018-Feb-23 16:30N 48°08' W 005°25'5 9.8
2018-Feb-23 16:00N 48°06' W 005°18'5 9.8
2018-Feb-23 15:30N 48°04' W 005°11'5 9.9
2018-Feb-23 14:59N 48°01' W 005°05'5 9.7
2018-Feb-23 14:30N 47°58' W 004°59'5 9.7
2018-Feb-23 14:00N 47°56' W 004°53'510.0
2018-Feb-23 13:30N 47°55' W 004°46'5 9.7
2018-Feb-23 12:58N 47°53' W 004°38'5 9.6
2018-Feb-23 12:26N 47°51' W 004°31'4 9.6
2018-Feb-23 11:59N 47°49' W 004°26'2 0.4
2018-Feb-23 07:11N 47°49' W 004°23'0 0.6
2018-Feb-23 07:00N 47°49' W 004°23'1 2.1
2018-Feb-23 06:30N 47°49' W 004°24'1 3.0
2018-Feb-23 06:00N 47°49' W 004°26'4 7.9
2018-Feb-23 05:30N 47°51' W 004°32'4 7.8
2018-Feb-23 05:00N 47°52' W 004°38'3 5.8
2018-Feb-23 04:29N 47°53' W 004°42'3 5.5
2018-Feb-23 04:00N 47°54' W 004°46'3 5.3
2018-Feb-23 03:30N 47°54' W 004°49'3 5.2
2018-Feb-23 03:00N 47°55' W 004°53'2 4.9
2018-Feb-23 02:30N 47°56' W 004°57'4 8.2
2018-Feb-23 02:00N 47°57' W 005°02'4 8.7
2018-Feb-23 01:30N 47°59' W 005°09'4 8.5
2018-Feb-23 01:00N 48°00' W 005°15'4 8.7
2018-Feb-23 00:30N 48°02' W 005°20'5 8.5
2018-Feb-22 23:58N 48°04' W 005°26'4 8.6
2018-Feb-22 23:30N 48°06' W 005°32'4 8.6
2018-Feb-22 22:59N 48°08' W 005°37'4 8.6
2018-Feb-22 22:29N 48°10' W 005°43'5 8.6
2018-Feb-22 21:56N 48°13' W 005°49'  
2018-Feb-14 22:13N 48°18' W 005°42'2 9.3
2018-Feb-14 21:57N 48°17' W 005°39'5 9.2
2018-Feb-14 21:25N 48°15' W 005°32'4 9.2
2018-Feb-14 20:59N 48°13' W 005°26'5 8.9
2018-Feb-14 20:23N 48°12' W 005°18'3 8.7
2018-Feb-14 20:00N 48°10' W 005°14'4 8.7
2018-Feb-14 19:30N 48°09' W 005°08'5 8.6
2018-Feb-14 18:58N 48°07' W 005°01'4 8.9
2018-Feb-14 18:30N 48°06' W 004°56'4 8.9
2018-Feb-14 18:00N 48°04' W 004°50'3 6.8
2018-Feb-14 17:31N 48°02' W 004°46'3 6.5
2018-Feb-14 17:00N 47°59' W 004°42'4 8.0
2018-Feb-14 16:30N 47°57' W 004°38'4 8.6
2018-Feb-14 15:59N 47°54' W 004°33'5 8.9
2018-Feb-14 15:24N 47°50' W 004°27'3 7.9
2018-Feb-14 15:00N 47°49' W 004°23'0 0.7
2018-Feb-14 14:22N 47°49' W 004°23'0 0.0
2018-Feb-14 13:59N 47°49' W 004°23'0 0.0
2018-Feb-14 13:25N 47°49' W 004°23'0 0.0
2018-Feb-14 12:58N 47°49' W 004°23'0 0.0
2018-Feb-14 12:30N 47°49' W 004°23'0 0.0
2018-Feb-14 12:00N 47°49' W 004°23'0 0.0
2018-Feb-14 11:30N 47°49' W 004°23'0 0.0
2018-Feb-14 10:55N 47°49' W 004°23'0 0.0
2018-Feb-14 10:15N 47°49' W 004°23'0 0.0
2018-Feb-14 09:57N 47°49' W 004°23'0 0.0
2018-Feb-14 09:29N 47°49' W 004°23'0 0.0
2018-Feb-14 09:00N 47°49' W 004°23'0 0.0
2018-Feb-14 08:30N 47°49' W 004°23'0 0.0
2018-Feb-14 07:58N 47°49' W 004°23'0 0.0
2018-Feb-14 07:30N 47°49' W 004°23'0 0.0
2018-Feb-14 06:57N 47°49' W 004°23'0 0.0
2018-Feb-14 06:26N 47°49' W 004°23'0 0.0
2018-Feb-14 06:00N 47°49' W 004°23'0 0.0
2018-Feb-14 05:28N 47°49' W 004°23'0 0.0
2018-Feb-14 04:56N 47°49' W 004°23'0 0.0
2018-Feb-14 04:27N 47°49' W 004°23'0 0.0
2018-Feb-14 04:00N 47°49' W 004°23'0 0.0
2018-Feb-14 03:28N 47°49' W 004°23'0 0.0
2018-Feb-14 02:58N 47°49' W 004°23'0 0.0
2018-Feb-14 02:30N 47°49' W 004°23'0 0.0
2018-Feb-14 01:57N 47°49' W 004°23'0 0.0
2018-Feb-14 01:30N 47°49' W 004°23'0 0.0
2018-Feb-14 01:00N 47°49' W 004°23'0 0.0
2018-Feb-14 00:26N 47°49' W 004°23'0 0.0
2018-Feb-13 23:52N 47°49' W 004°23'0 0.0
2018-Feb-13 23:29N 47°49' W 004°23'0 0.0
2018-Feb-13 22:58N 47°49' W 004°23'0 0.0
2018-Feb-13 22:17N 47°49' W 004°23'0 0.0
2018-Feb-13 22:01N 47°49' W 004°23'0 0.0
2018-Feb-13 21:30N 47°49' W 004°23'0 0.0
2018-Feb-13 20:58N 47°49' W 004°23'0 0.0
2018-Feb-13 20:20N 47°49' W 004°23'0 0.0
2018-Feb-13 19:58N 47°49' W 004°23'0 0.0
2018-Feb-13 19:29N 47°49' W 004°23'0 0.0
2018-Feb-13 18:49N 47°49' W 004°23'0 0.0
2018-Feb-13 18:28N 47°49' W 004°23'  
Track history (hours):
 
Tides and Currents Weather Stations Pressure Air Temp Water Temp Dewpoint Dewpoint Depression Visibility Wind Speed Wind Dir Waves Ship Positions

L Ar Voaleden

Last reported at 2018-Feb-23 17:58 UTC. Time now 2018-Feb-25 02:11 UTC.
Position N 48°15' W 005°44'.

Length 23 m; draft 3.6 m.

Type: Fishing. MMSI: 226178000.

Date/timePositionNaut miles runAvg speedWind from/ knotsBaromVisibWave heightAir tempDewpointWater temp
2018-Feb-23 17:58N 48°15' W 005°44'5 9.8
2018-Feb-23 17:30N 48°13' W 005°38'5 9.8
2018-Feb-23 17:00N 48°10' W 005°31'5 9.8
2018-Feb-23 16:30N 48°08' W 005°25'5 9.8
2018-Feb-23 16:00N 48°06' W 005°18'5 9.8
2018-Feb-23 15:30N 48°04' W 005°11'5 9.9
2018-Feb-23 14:59N 48°01' W 005°05'5 9.7
2018-Feb-23 14:30N 47°58' W 004°59'5 9.7
2018-Feb-23 14:00N 47°56' W 004°53'510.0
2018-Feb-23 13:30N 47°55' W 004°46'5 9.7
2018-Feb-23 12:58N 47°53' W 004°38'5 9.6
2018-Feb-23 12:26N 47°51' W 004°31'4 9.6
2018-Feb-23 11:59N 47°49' W 004°26'2 0.4
2018-Feb-23 07:11N 47°49' W 004°23'0 0.6
2018-Feb-23 07:00N 47°49' W 004°23'1 2.1
2018-Feb-23 06:30N 47°49' W 004°24'1 3.0
2018-Feb-23 06:00N 47°49' W 004°26'4 7.9
2018-Feb-23 05:30N 47°51' W 004°32'4 7.8
2018-Feb-23 05:00N 47°52' W 004°38'3 5.8
2018-Feb-23 04:29N 47°53' W 004°42'3 5.5
2018-Feb-23 04:00N 47°54' W 004°46'3 5.3
2018-Feb-23 03:30N 47°54' W 004°49'3 5.2
2018-Feb-23 03:00N 47°55' W 004°53'2 4.9
2018-Feb-23 02:30N 47°56' W 004°57'4 8.2
2018-Feb-23 02:00N 47°57' W 005°02'4 8.7
2018-Feb-23 01:30N 47°59' W 005°09'4 8.5
2018-Feb-23 01:00N 48°00' W 005°15'4 8.7
2018-Feb-23 00:30N 48°02' W 005°20'5 8.5
2018-Feb-22 23:58N 48°04' W 005°26'4 8.6
2018-Feb-22 23:30N 48°06' W 005°32'4 8.6
2018-Feb-22 22:59N 48°08' W 005°37'4 8.6
2018-Feb-22 22:29N 48°10' W 005°43'5 8.6
2018-Feb-22 21:56N 48°13' W 005°49'  
2018-Feb-14 22:13N 48°18' W 005°42'2 9.3
2018-Feb-14 21:57N 48°17' W 005°39'5 9.2
2018-Feb-14 21:25N 48°15' W 005°32'4 9.2
2018-Feb-14 20:59N 48°13' W 005°26'5 8.9
2018-Feb-14 20:23N 48°12' W 005°18'3 8.7
2018-Feb-14 20:00N 48°10' W 005°14'4 8.7
2018-Feb-14 19:30N 48°09' W 005°08'5 8.6
2018-Feb-14 18:58N 48°07' W 005°01'4 8.9
2018-Feb-14 18:30N 48°06' W 004°56'4 8.9
2018-Feb-14 18:00N 48°04' W 004°50'3 6.8
2018-Feb-14 17:31N 48°02' W 004°46'3 6.5
2018-Feb-14 17:00N 47°59' W 004°42'4 8.0
2018-Feb-14 16:30N 47°57' W 004°38'4 8.6
2018-Feb-14 15:59N 47°54' W 004°33'5 8.9
2018-Feb-14 15:24N 47°50' W 004°27'3 7.9
2018-Feb-14 15:00N 47°49' W 004°23'0 0.7
2018-Feb-14 14:22N 47°49' W 004°23'0 0.0
2018-Feb-14 13:59N 47°49' W 004°23'0 0.0
2018-Feb-14 13:25N 47°49' W 004°23'0 0.0
2018-Feb-14 12:58N 47°49' W 004°23'0 0.0
2018-Feb-14 12:30N 47°49' W 004°23'0 0.0
2018-Feb-14 12:00N 47°49' W 004°23'0 0.0
2018-Feb-14 11:30N 47°49' W 004°23'0 0.0
2018-Feb-14 10:55N 47°49' W 004°23'0 0.0
2018-Feb-14 10:15N 47°49' W 004°23'0 0.0
2018-Feb-14 09:57N 47°49' W 004°23'0 0.0
2018-Feb-14 09:29N 47°49' W 004°23'0 0.0
2018-Feb-14 09:00N 47°49' W 004°23'0 0.0
2018-Feb-14 08:30N 47°49' W 004°23'0 0.0
2018-Feb-14 07:58N 47°49' W 004°23'0 0.0
2018-Feb-14 07:30N 47°49' W 004°23'0 0.0
2018-Feb-14 06:57N 47°49' W 004°23'0 0.0
2018-Feb-14 06:26N 47°49' W 004°23'0 0.0
2018-Feb-14 06:00N 47°49' W 004°23'0 0.0
2018-Feb-14 05:28N 47°49' W 004°23'0 0.0
2018-Feb-14 04:56N 47°49' W 004°23'0 0.0
2018-Feb-14 04:27N 47°49' W 004°23'0 0.0
2018-Feb-14 04:00N 47°49' W 004°23'0 0.0
2018-Feb-14 03:28N 47°49' W 004°23'0 0.0
2018-Feb-14 02:58N 47°49' W 004°23'0 0.0
2018-Feb-14 02:30N 47°49' W 004°23'0 0.0
2018-Feb-14 01:57N 47°49' W 004°23'0 0.0
2018-Feb-14 01:30N 47°49' W 004°23'0 0.0
2018-Feb-14 01:00N 47°49' W 004°23'0 0.0
2018-Feb-14 00:26N 47°49' W 004°23'0 0.0
2018-Feb-13 23:52N 47°49' W 004°23'0 0.0
2018-Feb-13 23:29N 47°49' W 004°23'0 0.0
2018-Feb-13 22:58N 47°49' W 004°23'0 0.0
2018-Feb-13 22:17N 47°49' W 004°23'0 0.0
2018-Feb-13 22:01N 47°49' W 004°23'0 0.0
2018-Feb-13 21:30N 47°49' W 004°23'0 0.0
2018-Feb-13 20:58N 47°49' W 004°23'0 0.0
2018-Feb-13 20:20N 47°49' W 004°23'0 0.0
2018-Feb-13 19:58N 47°49' W 004°23'0 0.0
2018-Feb-13 19:29N 47°49' W 004°23'0 0.0
2018-Feb-13 18:49N 47°49' W 004°23'0 0.0
2018-Feb-13 18:28N 47°49' W 004°23'  

Dump ship's entire track history